sensor_id;sensor_type;location;lat;lon;timestamp;temperature;humidity
66213;SHT31;53015;50.046;8.238;2023-02-01T00:00:17;6.00;94.36
66213;SHT31;53015;50.046;8.238;2023-02-01T00:02:44;6.00;94.37
66213;SHT31;53015;50.046;8.238;2023-02-01T00:05:10;5.97;94.20
66213;SHT31;53015;50.046;8.238;2023-02-01T00:07:36;5.89;94.32
66213;SHT31;53015;50.046;8.238;2023-02-01T00:10:01;5.90;94.50
66213;SHT31;53015;50.046;8.238;2023-02-01T00:12:27;5.89;94.51
66213;SHT31;53015;50.046;8.238;2023-02-01T00:14:52;5.90;94.66
66213;SHT31;53015;50.046;8.238;2023-02-01T00:17:18;5.85;94.67
66213;SHT31;53015;50.046;8.238;2023-02-01T00:19:44;5.83;94.66
66213;SHT31;53015;50.046;8.238;2023-02-01T00:22:10;5.85;94.09
66213;SHT31;53015;50.046;8.238;2023-02-01T00:24:35;5.85;94.10
66213;SHT31;53015;50.046;8.238;2023-02-01T00:27:01;5.81;94.35
66213;SHT31;53015;50.046;8.238;2023-02-01T00:29:26;5.77;94.44
66213;SHT31;53015;50.046;8.238;2023-02-01T00:31:52;5.80;94.27
66213;SHT31;53015;50.046;8.238;2023-02-01T00:34:18;5.89;94.06
66213;SHT31;53015;50.046;8.238;2023-02-01T00:36:45;5.89;93.60
66213;SHT31;53015;50.046;8.238;2023-02-01T00:39:11;5.89;93.46
66213;SHT31;53015;50.046;8.238;2023-02-01T00:41:37;5.90;93.45
66213;SHT31;53015;50.046;8.238;2023-02-01T00:44:03;5.91;93.23
66213;SHT31;53015;50.046;8.238;2023-02-01T00:46:29;5.89;93.56
66213;SHT31;53015;50.046;8.238;2023-02-01T00:48:55;5.83;93.53
66213;SHT31;53015;50.046;8.238;2023-02-01T00:51:23;5.80;93.62
66213;SHT31;53015;50.046;8.238;2023-02-01T00:53:50;5.87;93.19
66213;SHT31;53015;50.046;8.238;2023-02-01T00:56:16;5.90;92.71
66213;SHT31;53015;50.046;8.238;2023-02-01T00:58:41;5.94;92.77
66213;SHT31;53015;50.046;8.238;2023-02-01T01:01:09;5.98;92.62
66213;SHT31;53015;50.046;8.238;2023-02-01T01:03:36;6.01;92.92
66213;SHT31;53015;50.046;8.238;2023-02-01T01:06:05;5.94;93.01
66213;SHT31;53015;50.046;8.238;2023-02-01T01:08:30;6.01;92.89
66213;SHT31;53015;50.046;8.238;2023-02-01T01:10:57;6.00;93.20
66213;SHT31;53015;50.046;8.238;2023-02-01T01:13:23;6.00;92.89
66213;SHT31;53015;50.046;8.238;2023-02-01T01:15:48;6.07;92.92
66213;SHT31;53015;50.046;8.238;2023-02-01T01:18:14;6.07;92.98
66213;SHT31;53015;50.046;8.238;2023-02-01T01:20:40;6.07;93.02
66213;SHT31;53015;50.046;8.238;2023-02-01T01:23:07;6.08;93.14
66213;SHT31;53015;50.046;8.238;2023-02-01T01:25:36;6.08;93.24
66213;SHT31;53015;50.046;8.238;2023-02-01T01:28:03;6.11;92.93
66213;SHT31;53015;50.046;8.238;2023-02-01T01:30:28;6.14;93.16
66213;SHT31;53015;50.046;8.238;2023-02-01T01:32:54;6.11;93.50
66213;SHT31;53015;50.046;8.238;2023-02-01T01:35:19;6.15;93.66
66213;SHT31;53015;50.046;8.238;2023-02-01T01:37:44;6.15;93.63
66213;SHT31;53015;50.046;8.238;2023-02-01T01:40:11;6.11;93.78
66213;SHT31;53015;50.046;8.238;2023-02-01T01:42:37;6.14;93.94
66213;SHT31;53015;50.046;8.238;2023-02-01T01:45:05;6.10;93.99
66213;SHT31;53015;50.046;8.238;2023-02-01T01:47:34;6.08;93.94
66213;SHT31;53015;50.046;8.238;2023-02-01T01:50:01;6.07;94.44
66213;SHT31;53015;50.046;8.238;2023-02-01T01:52:27;6.10;94.35
66213;SHT31;53015;50.046;8.238;2023-02-01T01:54:53;6.07;94.51
66213;SHT31;53015;50.046;8.238;2023-02-01T01:57:23;6.04;94.70
66213;SHT31;53015;50.046;8.238;2023-02-01T01:59:54;6.01;94.86
66213;SHT31;53015;50.046;8.238;2023-02-01T02:02:22;5.98;95.30
66213;SHT31;53015;50.046;8.238;2023-02-01T02:04:47;6.01;95.46
66213;SHT31;53015;50.046;8.238;2023-02-01T02:07:16;5.94;95.77
66213;SHT31;53015;50.046;8.238;2023-02-01T02:09:42;5.96;95.99
66213;SHT31;53015;50.046;8.238;2023-02-01T02:12:08;6.01;95.84
66213;SHT31;53015;50.046;8.238;2023-02-01T02:14:33;6.01;95.87
66213;SHT31;53015;50.046;8.238;2023-02-01T02:17:10;5.93;96.19
66213;SHT31;53015;50.046;8.238;2023-02-01T02:20:14;5.97;96.14
66213;SHT31;53015;50.046;8.238;2023-02-01T02:22:53;5.96;96.44
66213;SHT31;53015;50.046;8.238;2023-02-01T02:25:34;5.96;96.55
66213;SHT31;53015;50.046;8.238;2023-02-01T02:28:16;5.91;96.49
66213;SHT31;53015;50.046;8.238;2023-02-01T02:31:16;5.83;96.98
66213;SHT31;53015;50.046;8.238;2023-02-01T02:33:55;5.83;97.13
66213;SHT31;53015;50.046;8.238;2023-02-01T02:36:31;5.83;97.11
66213;SHT31;53015;50.046;8.238;2023-02-01T02:39:06;5.74;97.27
66213;SHT31;53015;50.046;8.238;2023-02-01T02:41:39;5.81;97.11
66213;SHT31;53015;50.046;8.238;2023-02-01T02:44:13;5.83;97.08
66213;SHT31;53015;50.046;8.238;2023-02-01T02:46:47;5.89;97.24
66213;SHT31;53015;50.046;8.238;2023-02-01T02:49:19;5.85;96.98
66213;SHT31;53015;50.046;8.238;2023-02-01T02:51:48;5.80;96.98
66213;SHT31;53015;50.046;8.238;2023-02-01T02:54:17;5.85;97.26
66213;SHT31;53015;50.046;8.238;2023-02-01T02:56:43;5.81;97.31
66213;SHT31;53015;50.046;8.238;2023-02-01T02:59:11;5.83;97.28
66213;SHT31;53015;50.046;8.238;2023-02-01T03:01:38;5.86;97.24
66213;SHT31;53015;50.046;8.238;2023-02-01T03:04:05;5.90;97.02
66213;SHT31;53015;50.046;8.238;2023-02-01T03:06:32;5.87;97.04
66213;SHT31;53015;50.046;8.238;2023-02-01T03:08:59;5.93;96.90
66213;SHT31;53015;50.046;8.238;2023-02-01T03:11:28;5.94;96.98
66213;SHT31;53015;50.046;8.238;2023-02-01T03:13:57;5.91;96.98
66213;SHT31;53015;50.046;8.238;2023-02-01T03:16:24;5.91;97.08
66213;SHT31;53015;50.046;8.238;2023-02-01T03:18:55;5.91;96.90
66213;SHT31;53015;50.046;8.238;2023-02-01T03:21:25;5.85;97.24
66213;SHT31;53015;50.046;8.238;2023-02-01T03:23:53;5.86;97.37
66213;SHT31;53015;50.046;8.238;2023-02-01T03:26:22;5.86;97.35
66213;SHT31;53015;50.046;8.238;2023-02-01T03:28:52;5.83;97.31
66213;SHT31;53015;50.046;8.238;2023-02-01T03:31:20;5.85;97.42
66213;SHT31;53015;50.046;8.238;2023-02-01T03:33:46;5.87;97.38
66213;SHT31;53015;50.046;8.238;2023-02-01T03:36:18;5.89;97.16
66213;SHT31;53015;50.046;8.238;2023-02-01T03:38:50;5.91;97.25
66213;SHT31;53015;50.046;8.238;2023-02-01T03:41:24;5.91;97.21
66213;SHT31;53015;50.046;8.238;2023-02-01T03:43:54;5.87;97.14
66213;SHT31;53015;50.046;8.238;2023-02-01T03:46:25;5.90;97.12
66213;SHT31;53015;50.046;8.238;2023-02-01T03:48:53;5.87;97.06
66213;SHT31;53015;50.046;8.238;2023-02-01T03:51:20;5.89;97.38
66213;SHT31;53015;50.046;8.238;2023-02-01T03:53:47;5.87;97.17
66213;SHT31;53015;50.046;8.238;2023-02-01T03:56:14;5.86;97.09
66213;SHT31;53015;50.046;8.238;2023-02-01T03:58:41;5.85;97.10
66213;SHT31;53015;50.046;8.238;2023-02-01T04:01:07;5.86;97.01
66213;SHT31;53015;50.046;8.238;2023-02-01T04:03:32;5.86;96.98
66213;SHT31;53015;50.046;8.238;2023-02-01T04:05:58;5.90;96.84
66213;SHT31;53015;50.046;8.238;2023-02-01T04:08:23;5.86;96.83
66213;SHT31;53015;50.046;8.238;2023-02-01T04:10:49;5.83;96.84
66213;SHT31;53015;50.046;8.238;2023-02-01T04:13:14;5.86;96.80
66213;SHT31;53015;50.046;8.238;2023-02-01T04:15:41;5.87;96.65
66213;SHT31;53015;50.046;8.238;2023-02-01T04:18:06;5.89;96.89
66213;SHT31;53015;50.046;8.238;2023-02-01T04:20:32;5.90;96.74
66213;SHT31;53015;50.046;8.238;2023-02-01T04:22:58;5.87;96.87
66213;SHT31;53015;50.046;8.238;2023-02-01T04:25:24;5.96;96.63
66213;SHT31;53015;50.046;8.238;2023-02-01T04:27:49;5.89;96.58
66213;SHT31;53015;50.046;8.238;2023-02-01T04:30:15;5.89;96.86
66213;SHT31;53015;50.046;8.238;2023-02-01T04:32:42;5.80;96.51
66213;SHT31;53015;50.046;8.238;2023-02-01T04:35:08;5.86;96.68
66213;SHT31;53015;50.046;8.238;2023-02-01T04:37:34;5.85;96.65
66213;SHT31;53015;50.046;8.238;2023-02-01T04:40:00;5.87;96.56
66213;SHT31;53015;50.046;8.238;2023-02-01T04:42:25;5.81;96.51
66213;SHT31;53015;50.046;8.238;2023-02-01T04:44:51;5.86;96.20
66213;SHT31;53015;50.046;8.238;2023-02-01T04:47:17;5.87;96.06
66213;SHT31;53015;50.046;8.238;2023-02-01T04:49:43;5.90;96.22
66213;SHT31;53015;50.046;8.238;2023-02-01T04:52:09;5.90;96.16
66213;SHT31;53015;50.046;8.238;2023-02-01T04:54:34;5.87;96.00
66213;SHT31;53015;50.046;8.238;2023-02-01T04:57:00;5.89;95.90
66213;SHT31;53015;50.046;8.238;2023-02-01T04:59:25;5.89;95.70
66213;SHT31;53015;50.046;8.238;2023-02-01T05:01:51;5.83;95.92
66213;SHT31;53015;50.046;8.238;2023-02-01T05:04:16;5.81;96.03
66213;SHT31;53015;50.046;8.238;2023-02-01T05:06:42;5.86;96.02
66213;SHT31;53015;50.046;8.238;2023-02-01T05:09:08;5.81;96.03
66213;SHT31;53015;50.046;8.238;2023-02-01T05:11:33;5.83;96.05
66213;SHT31;53015;50.046;8.238;2023-02-01T05:14:00;5.86;95.83
66213;SHT31;53015;50.046;8.238;2023-02-01T05:16:25;5.93;95.40
66213;SHT31;53015;50.046;8.238;2023-02-01T05:18:51;5.97;95.37
66213;SHT31;53015;50.046;8.238;2023-02-01T05:21:17;5.93;95.30
66213;SHT31;53015;50.046;8.238;2023-02-01T05:23:43;6.00;95.15
66213;SHT31;53015;50.046;8.238;2023-02-01T05:26:09;5.91;95.24
66213;SHT31;53015;50.046;8.238;2023-02-01T05:28:34;5.96;95.32
66213;SHT31;53015;50.046;8.238;2023-02-01T05:31:00;5.93;95.35
66213;SHT31;53015;50.046;8.238;2023-02-01T05:33:25;5.94;95.34
66213;SHT31;53015;50.046;8.238;2023-02-01T05:35:51;5.94;94.96
66213;SHT31;53015;50.046;8.238;2023-02-01T05:38:16;5.96;94.80
66213;SHT31;53015;50.046;8.238;2023-02-01T05:40:42;5.96;95.13
66213;SHT31;53015;50.046;8.238;2023-02-01T05:43:08;5.97;95.10
66213;SHT31;53015;50.046;8.238;2023-02-01T05:45:33;6.04;93.08
66213;SHT31;53015;50.046;8.238;2023-02-01T05:47:59;5.97;93.76
66213;SHT31;53015;50.046;8.238;2023-02-01T05:50:24;5.98;94.19
66213;SHT31;53015;50.046;8.238;2023-02-01T05:52:50;6.00;93.84
66213;SHT31;53015;50.046;8.238;2023-02-01T05:55:16;5.91;93.87
66213;SHT31;53015;50.046;8.238;2023-02-01T05:57:42;5.86;94.49
66213;SHT31;53015;50.046;8.238;2023-02-01T06:00:10;5.80;94.81
66213;SHT31;53015;50.046;8.238;2023-02-01T06:02:35;5.86;93.65
66213;SHT31;53015;50.046;8.238;2023-02-01T06:05:01;5.94;94.07
66213;SHT31;53015;50.046;8.238;2023-02-01T06:07:27;5.96;93.39
66213;SHT31;53015;50.046;8.238;2023-02-01T06:09:52;5.93;93.72
66213;SHT31;53015;50.046;8.238;2023-02-01T06:12:18;5.93;93.78
66213;SHT31;53015;50.046;8.238;2023-02-01T06:14:44;5.91;94.33
66213;SHT31;53015;50.046;8.238;2023-02-01T06:17:09;5.79;94.63
66213;SHT31;53015;50.046;8.238;2023-02-01T06:19:35;5.71;94.74
66213;SHT31;53015;50.046;8.238;2023-02-01T06:22:01;5.65;95.20
66213;SHT31;53015;50.046;8.238;2023-02-01T06:24:26;5.45;95.17
66213;SHT31;53015;50.046;8.238;2023-02-01T06:26:52;5.25;95.34
66213;SHT31;53015;50.046;8.238;2023-02-01T06:29:17;5.11;96.17
66213;SHT31;53015;50.046;8.238;2023-02-01T06:31:43;5.12;96.14
66213;SHT31;53015;50.046;8.238;2023-02-01T06:34:09;4.98;96.10
66213;SHT31;53015;50.046;8.238;2023-02-01T06:36:34;4.90;96.21
66213;SHT31;53015;50.046;8.238;2023-02-01T06:39:00;4.81;95.99
66213;SHT31;53015;50.046;8.238;2023-02-01T06:41:25;4.84;96.18
66213;SHT31;53015;50.046;8.238;2023-02-01T06:43:51;4.83;95.97
66213;SHT31;53015;50.046;8.238;2023-02-01T06:46:16;4.77;95.84
66213;SHT31;53015;50.046;8.238;2023-02-01T06:48:43;4.85;95.73
66213;SHT31;53015;50.046;8.238;2023-02-01T06:51:18;4.84;95.65
66213;SHT31;53015;50.046;8.238;2023-02-01T06:53:44;4.77;95.63
66213;SHT31;53015;50.046;8.238;2023-02-01T06:56:10;4.85;95.93
66213;SHT31;53015;50.046;8.238;2023-02-01T06:58:35;4.74;95.58
66213;SHT31;53015;50.046;8.238;2023-02-01T07:01:05;4.73;94.77
66213;SHT31;53015;50.046;8.238;2023-02-01T07:03:30;4.74;94.74
66213;SHT31;53015;50.046;8.238;2023-02-01T07:05:57;4.66;94.97
66213;SHT31;53015;50.046;8.238;2023-02-01T07:08:23;4.74;95.11
66213;SHT31;53015;50.046;8.238;2023-02-01T07:10:49;4.83;94.59
66213;SHT31;53015;50.046;8.238;2023-02-01T07:13:14;4.91;94.63
66213;SHT31;53015;50.046;8.238;2023-02-01T07:15:39;4.90;94.06
66213;SHT31;53015;50.046;8.238;2023-02-01T07:18:05;4.87;94.11
66213;SHT31;53015;50.046;8.238;2023-02-01T07:20:30;4.83;93.92
66213;SHT31;53015;50.046;8.238;2023-02-01T07:22:57;4.66;93.95
66213;SHT31;53015;50.046;8.238;2023-02-01T07:25:22;4.73;93.96
66213;SHT31;53015;50.046;8.238;2023-02-01T07:27:48;4.55;93.67
66213;SHT31;53015;50.046;8.238;2023-02-01T07:30:14;4.57;93.97
66213;SHT31;53015;50.046;8.238;2023-02-01T07:32:39;4.46;93.44
66213;SHT31;53015;50.046;8.238;2023-02-01T07:35:05;4.52;93.37
66213;SHT31;53015;50.046;8.238;2023-02-01T07:37:31;4.50;93.06
66213;SHT31;53015;50.046;8.238;2023-02-01T07:39:57;4.59;92.43
66213;SHT31;53015;50.046;8.238;2023-02-01T07:42:22;4.65;92.40
66213;SHT31;53015;50.046;8.238;2023-02-01T07:44:48;4.69;92.36
66213;SHT31;53015;50.046;8.238;2023-02-01T07:47:13;4.73;91.96
66213;SHT31;53015;50.046;8.238;2023-02-01T07:49:39;4.72;91.91
66213;SHT31;53015;50.046;8.238;2023-02-01T07:52:04;4.83;91.77
66213;SHT31;53015;50.046;8.238;2023-02-01T07:54:30;4.91;90.89
66213;SHT31;53015;50.046;8.238;2023-02-01T07:56:56;4.94;91.09
66213;SHT31;53015;50.046;8.238;2023-02-01T07:59:22;4.95;91.21
66213;SHT31;53015;50.046;8.238;2023-02-01T08:01:47;4.94;91.14
66213;SHT31;53015;50.046;8.238;2023-02-01T08:04:13;5.07;90.87
66213;SHT31;53015;50.046;8.238;2023-02-01T08:06:39;5.15;90.29
66213;SHT31;53015;50.046;8.238;2023-02-01T08:09:05;5.21;90.18
66213;SHT31;53015;50.046;8.238;2023-02-01T08:11:32;5.24;90.41
66213;SHT31;53015;50.046;8.238;2023-02-01T08:13:58;5.27;89.79
66213;SHT31;53015;50.046;8.238;2023-02-01T08:16:24;5.34;89.26
66213;SHT31;53015;50.046;8.238;2023-02-01T08:18:50;5.38;88.66
66213;SHT31;53015;50.046;8.238;2023-02-01T08:21:17;5.39;88.97
66213;SHT31;53015;50.046;8.238;2023-02-01T08:23:44;5.41;88.33
66213;SHT31;53015;50.046;8.238;2023-02-01T08:26:10;5.45;87.67
66213;SHT31;53015;50.046;8.238;2023-02-01T08:28:37;5.58;87.48
66213;SHT31;53015;50.046;8.238;2023-02-01T08:31:07;5.65;87.06
66213;SHT31;53015;50.046;8.238;2023-02-01T08:33:33;5.77;86.57
66213;SHT31;53015;50.046;8.238;2023-02-01T08:36:00;5.81;86.14
66213;SHT31;53015;50.046;8.238;2023-02-01T08:38:26;5.89;86.51
66213;SHT31;53015;50.046;8.238;2023-02-01T08:40:51;5.93;86.53
66213;SHT31;53015;50.046;8.238;2023-02-01T08:43:18;6.03;85.39
66213;SHT31;53015;50.046;8.238;2023-02-01T08:45:44;5.98;86.12
66213;SHT31;53015;50.046;8.238;2023-02-01T08:48:10;6.01;85.61
66213;SHT31;53015;50.046;8.238;2023-02-01T08:50:35;6.10;84.55
66213;SHT31;53015;50.046;8.238;2023-02-01T08:53:01;6.17;84.30
66213;SHT31;53015;50.046;8.238;2023-02-01T08:55:26;6.28;84.06
66213;SHT31;53015;50.046;8.238;2023-02-01T08:57:52;6.35;83.48
66213;SHT31;53015;50.046;8.238;2023-02-01T09:00:18;6.42;83.14
66213;SHT31;53015;50.046;8.238;2023-02-01T09:02:44;6.52;83.21
66213;SHT31;53015;50.046;8.238;2023-02-01T09:05:11;6.59;82.89
66213;SHT31;53015;50.046;8.238;2023-02-01T09:07:37;6.63;82.03
66213;SHT31;53015;50.046;8.238;2023-02-01T09:10:04;6.68;82.13
66213;SHT31;53015;50.046;8.238;2023-02-01T09:12:32;6.65;81.82
66213;SHT31;53015;50.046;8.238;2023-02-01T09:14:58;6.70;82.26
66213;SHT31;53015;50.046;8.238;2023-02-01T09:17:24;6.72;81.44
66213;SHT31;53015;50.046;8.238;2023-02-01T09:19:49;6.73;81.82
66213;SHT31;53015;50.046;8.238;2023-02-01T09:22:15;6.75;81.25
66213;SHT31;53015;50.046;8.238;2023-02-01T09:24:41;6.77;81.10
66213;SHT31;53015;50.046;8.238;2023-02-01T09:27:06;6.80;82.13
66213;SHT31;53015;50.046;8.238;2023-02-01T09:29:32;6.87;81.25
66213;SHT31;53015;50.046;8.238;2023-02-01T09:31:58;6.90;80.48
66213;SHT31;53015;50.046;8.238;2023-02-01T09:34:23;6.90;80.76
66213;SHT31;53015;50.046;8.238;2023-02-01T09:36:49;6.91;79.61
66213;SHT31;53015;50.046;8.238;2023-02-01T09:39:15;6.96;79.55
66213;SHT31;53015;50.046;8.238;2023-02-01T09:41:51;6.98;79.71
66213;SHT31;53015;50.046;8.238;2023-02-01T09:44:35;7.03;79.44
66213;SHT31;53015;50.046;8.238;2023-02-01T09:47:03;6.94;79.10
66213;SHT31;53015;50.046;8.238;2023-02-01T09:49:32;6.96;78.73
66213;SHT31;53015;50.046;8.238;2023-02-01T09:52:01;7.03;79.33
66213;SHT31;53015;50.046;8.238;2023-02-01T09:54:33;7.04;79.13
66213;SHT31;53015;50.046;8.238;2023-02-01T09:57:06;7.03;79.07
66213;SHT31;53015;50.046;8.238;2023-02-01T09:59:38;6.98;79.56
66213;SHT31;53015;50.046;8.238;2023-02-01T10:02:11;7.05;78.84
66213;SHT31;53015;50.046;8.238;2023-02-01T10:04:37;7.12;79.43
66213;SHT31;53015;50.046;8.238;2023-02-01T10:07:13;7.14;78.68
66213;SHT31;53015;50.046;8.238;2023-02-01T10:09:55;7.17;78.56
66213;SHT31;53015;50.046;8.238;2023-02-01T10:12:36;7.22;78.26
66213;SHT31;53015;50.046;8.238;2023-02-01T10:15:18;7.18;78.89
66213;SHT31;53015;50.046;8.238;2023-02-01T10:17:56;7.19;78.20
66213;SHT31;53015;50.046;8.238;2023-02-01T10:20:28;7.24;77.61
66213;SHT31;53015;50.046;8.238;2023-02-01T10:23:04;7.21;77.45
66213;SHT31;53015;50.046;8.238;2023-02-01T10:25:37;7.17;77.42
66213;SHT31;53015;50.046;8.238;2023-02-01T10:28:13;7.28;77.32
66213;SHT31;53015;50.046;8.238;2023-02-01T10:30:40;7.34;77.04
66213;SHT31;53015;50.046;8.238;2023-02-01T10:33:15;7.21;77.03
66213;SHT31;53015;50.046;8.238;2023-02-01T10:35:41;7.22;77.23
66213;SHT31;53015;50.046;8.238;2023-02-01T10:38:15;7.31;77.01
66213;SHT31;53015;50.046;8.238;2023-02-01T10:40:42;7.29;77.57
66213;SHT31;53015;50.046;8.238;2023-02-01T10:43:09;7.29;76.90
66213;SHT31;53015;50.046;8.238;2023-02-01T10:45:35;7.22;76.92
66213;SHT31;53015;50.046;8.238;2023-02-01T10:48:02;7.22;77.30
66213;SHT31;53015;50.046;8.238;2023-02-01T10:50:34;7.17;77.11
66213;SHT31;53015;50.046;8.238;2023-02-01T10:53:03;7.18;77.25
66213;SHT31;53015;50.046;8.238;2023-02-01T10:55:37;7.24;77.24
66213;SHT31;53015;50.046;8.238;2023-02-01T10:58:06;7.22;77.06
66213;SHT31;53015;50.046;8.238;2023-02-01T11:00:42;7.21;77.56
66213;SHT31;53015;50.046;8.238;2023-02-01T11:03:41;7.24;77.03
66213;SHT31;53015;50.046;8.238;2023-02-01T11:06:16;7.19;77.01
66213;SHT31;53015;50.046;8.238;2023-02-01T11:08:45;7.21;77.55
66213;SHT31;53015;50.046;8.238;2023-02-01T11:11:12;7.17;76.89
66213;SHT31;53015;50.046;8.238;2023-02-01T11:13:40;7.22;77.16
66213;SHT31;53015;50.046;8.238;2023-02-01T11:16:08;7.19;77.40
66213;SHT31;53015;50.046;8.238;2023-02-01T11:18:37;7.27;76.84
66213;SHT31;53015;50.046;8.238;2023-02-01T11:21:05;7.39;76.41
66213;SHT31;53015;50.046;8.238;2023-02-01T11:23:32;7.41;76.70
66213;SHT31;53015;50.046;8.238;2023-02-01T11:26:00;7.42;76.12
66213;SHT31;53015;50.046;8.238;2023-02-01T11:28:27;7.45;76.22
66213;SHT31;53015;50.046;8.238;2023-02-01T11:30:57;7.46;76.23
66213;SHT31;53015;50.046;8.238;2023-02-01T11:33:27;7.46;76.06
66213;SHT31;53015;50.046;8.238;2023-02-01T11:35:54;7.52;76.08
66213;SHT31;53015;50.046;8.238;2023-02-01T11:38:22;7.45;75.92
66213;SHT31;53015;50.046;8.238;2023-02-01T11:40:51;7.42;76.50
66213;SHT31;53015;50.046;8.238;2023-02-01T11:43:23;7.34;76.75
66213;SHT31;53015;50.046;8.238;2023-02-01T11:45:58;7.39;76.09
66213;SHT31;53015;50.046;8.238;2023-02-01T11:48:25;7.36;76.40
66213;SHT31;53015;50.046;8.238;2023-02-01T11:50:57;7.35;76.67
66213;SHT31;53015;50.046;8.238;2023-02-01T11:53:39;7.38;76.88
66213;SHT31;53015;50.046;8.238;2023-02-01T11:56:15;7.39;77.16
66213;SHT31;53015;50.046;8.238;2023-02-01T11:59:00;7.46;77.06
66213;SHT31;53015;50.046;8.238;2023-02-01T12:07:42;7.46;77.47
66213;SHT31;53015;50.046;8.238;2023-02-01T12:10:23;7.52;77.13
66213;SHT31;53015;50.046;8.238;2023-02-01T12:12:56;7.56;76.84
66213;SHT31;53015;50.046;8.238;2023-02-01T12:15:35;7.55;77.19
66213;SHT31;53015;50.046;8.238;2023-02-01T12:18:19;7.54;76.61
66213;SHT31;53015;50.046;8.238;2023-02-01T12:21:05;7.54;76.41
66213;SHT31;53015;50.046;8.238;2023-02-01T12:23:50;7.54;76.19
66213;SHT31;53015;50.046;8.238;2023-02-01T12:26:35;7.58;76.46
66213;SHT31;53015;50.046;8.238;2023-02-01T12:29:13;7.56;76.55
66213;SHT31;53015;50.046;8.238;2023-02-01T12:31:48;7.54;76.35
66213;SHT31;53015;50.046;8.238;2023-02-01T12:34:29;7.56;76.28
66213;SHT31;53015;50.046;8.238;2023-02-01T12:37:09;7.49;76.15
66213;SHT31;53015;50.046;8.238;2023-02-01T12:39:39;7.54;75.62
66213;SHT31;53015;50.046;8.238;2023-02-01T12:42:11;7.55;75.28
66213;SHT31;53015;50.046;8.238;2023-02-01T12:44:43;7.56;75.30
66213;SHT31;53015;50.046;8.238;2023-02-01T12:47:16;7.58;75.55
66213;SHT31;53015;50.046;8.238;2023-02-01T12:49:48;7.59;75.48
66213;SHT31;53015;50.046;8.238;2023-02-01T12:52:21;7.61;75.55
66213;SHT31;53015;50.046;8.238;2023-02-01T12:54:52;7.65;75.90
66213;SHT31;53015;50.046;8.238;2023-02-01T12:57:25;7.62;75.95
66213;SHT31;53015;50.046;8.238;2023-02-01T12:59:55;7.59;75.60
66213;SHT31;53015;50.046;8.238;2023-02-01T13:02:32;7.62;75.12
66213;SHT31;53015;50.046;8.238;2023-02-01T13:05:04;7.76;75.46
66213;SHT31;53015;50.046;8.238;2023-02-01T13:07:36;7.83;75.05
66213;SHT31;53015;50.046;8.238;2023-02-01T13:10:11;7.94;73.88
66213;SHT31;53015;50.046;8.238;2023-02-01T13:12:45;8.05;74.28
66213;SHT31;53015;50.046;8.238;2023-02-01T13:15:16;8.10;74.14
66213;SHT31;53015;50.046;8.238;2023-02-01T13:17:43;8.08;73.73
66213;SHT31;53015;50.046;8.238;2023-02-01T13:20:21;8.14;74.18
66213;SHT31;53015;50.046;8.238;2023-02-01T13:22:51;8.12;74.36
66213;SHT31;53015;50.046;8.238;2023-02-01T13:25:28;8.05;73.90
66213;SHT31;53015;50.046;8.238;2023-02-01T13:27:55;8.10;73.75
66213;SHT31;53015;50.046;8.238;2023-02-01T13:30:25;8.17;73.50
66213;SHT31;53015;50.046;8.238;2023-02-01T13:33:13;8.11;73.77
66213;SHT31;53015;50.046;8.238;2023-02-01T13:36:03;8.20;73.49
66213;SHT31;53015;50.046;8.238;2023-02-01T13:41:26;8.35;72.99
66213;SHT31;53015;50.046;8.238;2023-02-01T13:43:54;8.41;72.46
66213;SHT31;53015;50.046;8.238;2023-02-01T13:46:20;8.39;72.69
66213;SHT31;53015;50.046;8.238;2023-02-01T13:48:49;8.38;70.49
66213;SHT31;53015;50.046;8.238;2023-02-01T13:51:18;8.45;70.44
66213;SHT31;53015;50.046;8.238;2023-02-01T13:53:54;8.39;70.41
66213;SHT31;53015;50.046;8.238;2023-02-01T13:56:20;8.42;71.20
66213;SHT31;53015;50.046;8.238;2023-02-01T13:58:48;8.46;71.55
66213;SHT31;53015;50.046;8.238;2023-02-01T14:01:34;8.44;70.66
66213;SHT31;53015;50.046;8.238;2023-02-01T14:04:01;8.42;70.80
66213;SHT31;53015;50.046;8.238;2023-02-01T14:06:42;8.37;69.94
66213;SHT31;53015;50.046;8.238;2023-02-01T14:09:18;8.37;70.22
66213;SHT31;53015;50.046;8.238;2023-02-01T14:11:46;8.41;70.20
66213;SHT31;53015;50.046;8.238;2023-02-01T14:14:42;8.53;70.62
66213;SHT31;53015;50.046;8.238;2023-02-01T14:17:35;8.42;69.95
66213;SHT31;53015;50.046;8.238;2023-02-01T14:23:15;8.53;69.63
66213;SHT31;53015;50.046;8.238;2023-02-01T14:25:41;8.55;69.76
66213;SHT31;53015;50.046;8.238;2023-02-01T14:28:11;8.53;69.72
66213;SHT31;53015;50.046;8.238;2023-02-01T14:30:37;8.58;69.76
66213;SHT31;53015;50.046;8.238;2023-02-01T14:33:12;8.53;69.39
66213;SHT31;53015;50.046;8.238;2023-02-01T14:35:57;8.58;68.61
66213;SHT31;53015;50.046;8.238;2023-02-01T14:38:25;8.55;68.94
66213;SHT31;53015;50.046;8.238;2023-02-01T14:40:51;8.58;69.40
66213;SHT31;53015;50.046;8.238;2023-02-01T14:43:17;8.53;69.24
66213;SHT31;53015;50.046;8.238;2023-02-01T14:46:03;8.41;70.43
66213;SHT31;53015;50.046;8.238;2023-02-01T14:48:43;8.39;70.65
66213;SHT31;53015;50.046;8.238;2023-02-01T14:51:11;8.42;69.67
66213;SHT31;53015;50.046;8.238;2023-02-01T14:53:42;8.41;69.97
66213;SHT31;53015;50.046;8.238;2023-02-01T14:56:11;8.41;70.15
66213;SHT31;53015;50.046;8.238;2023-02-01T14:58:41;8.39;70.21
66213;SHT31;53015;50.046;8.238;2023-02-01T15:01:17;8.39;70.36
66213;SHT31;53015;50.046;8.238;2023-02-01T15:03:48;8.32;70.82
66213;SHT31;53015;50.046;8.238;2023-02-01T15:06:29;8.39;70.59
66213;SHT31;53015;50.046;8.238;2023-02-01T15:09:01;8.49;70.07
66213;SHT31;53015;50.046;8.238;2023-02-01T15:11:27;8.59;70.11
66213;SHT31;53015;50.046;8.238;2023-02-01T15:13:53;8.59;69.93
66213;SHT31;53015;50.046;8.238;2023-02-01T15:16:20;8.56;69.92
66213;SHT31;53015;50.046;8.238;2023-02-01T15:18:46;8.56;70.24
66213;SHT31;53015;50.046;8.238;2023-02-01T15:21:17;8.52;70.75
66213;SHT31;53015;50.046;8.238;2023-02-01T15:23:42;8.50;71.30
66213;SHT31;53015;50.046;8.238;2023-02-01T15:26:08;8.48;71.94
66213;SHT31;53015;50.046;8.238;2023-02-01T15:28:34;8.44;71.51
66213;SHT31;53015;50.046;8.238;2023-02-01T15:31:01;8.41;72.43
66213;SHT31;53015;50.046;8.238;2023-02-01T15:33:28;8.45;71.70
66213;SHT31;53015;50.046;8.238;2023-02-01T15:35:56;8.39;71.70
66213;SHT31;53015;50.046;8.238;2023-02-01T15:38:37;8.44;71.52
66213;SHT31;53015;50.046;8.238;2023-02-01T15:41:06;8.44;70.83
66213;SHT31;53015;50.046;8.238;2023-02-01T15:43:34;8.38;71.65
66213;SHT31;53015;50.046;8.238;2023-02-01T15:46:02;8.35;72.07
66213;SHT31;53015;50.046;8.238;2023-02-01T15:48:33;8.34;73.04
66213;SHT31;53015;50.046;8.238;2023-02-01T15:51:01;8.27;72.92
66213;SHT31;53015;50.046;8.238;2023-02-01T15:53:27;8.27;73.40
66213;SHT31;53015;50.046;8.238;2023-02-01T15:55:55;8.34;72.09
66213;SHT31;53015;50.046;8.238;2023-02-01T15:58:24;8.32;72.08
66213;SHT31;53015;50.046;8.238;2023-02-01T16:00:52;8.41;71.50
66213;SHT31;53015;50.046;8.238;2023-02-01T16:03:27;8.38;71.46
66213;SHT31;53015;50.046;8.238;2023-02-01T16:05:57;8.34;71.92
66213;SHT31;53015;50.046;8.238;2023-02-01T16:08:26;8.37;71.50